Time;durP1;ratioP1;P1;durP2;ratioP2;P2;SDS_P1;SDS_P2;PMS_P1;PMS_P2;Temp;Humidity;BMP_temperature;BMP_pressure;BME280_temperature;BME280_humidity;BME280_pressure;Samples;Min_cycle;Max_cycle;Signal;HPM_P1;HPM_P2
2021/06/29 00:02:11;;;;;;;;;;;19.30;99.90;;;;;;5009587;28;24107;-82
2021/06/29 00:04:37;;;;;;;;;;;19.30;99.90;;;;;;5011031;28;20383;-79
2021/06/29 00:07:02;;;;;;;;;;;19.30;99.90;;;;;;5012708;28;19906;-80
2021/06/29 00:09:28;;;;;;;;;;;19.10;99.90;;;;;;5011621;28;19905;-80
2021/06/29 00:11:53;;;;;;;;;;;19.00;99.90;;;;;;5013254;28;19906;-82
2021/06/29 00:14:19;;;;;;;;;;;19.00;99.90;;;;;;5011725;28;19905;-81
2021/06/29 00:16:44;;;;;;;;;;;19.10;99.90;;;;;;5011904;28;19912;-80
2021/06/29 00:19:10;;;;;;;;;;;19.00;99.90;;;;;;5011847;28;24091;-81
2021/06/29 00:21:35;;;;;;;;;;;19.00;99.90;;;;;;5011362;28;24070;-79
2021/06/29 00:24:01;;;;;;;;;;;19.00;99.90;;;;;;5012856;28;24063;-79
2021/06/29 00:26:26;;;;;;;;;;;19.10;99.90;;;;;;5013192;28;19909;-81
2021/06/29 00:28:52;;;;;;;;;;;19.00;99.90;;;;;;5014460;28;24114;-81
2021/06/29 00:31:17;;;;;;;;;;;19.00;99.90;;;;;;5015501;28;19906;-80
2021/06/29 00:33:43;;;;;;;;;;;18.90;99.90;;;;;;5013979;28;19909;-79
2021/06/29 00:36:10;;;;;;;;;;;18.90;99.90;;;;;;5014929;28;19932;-82
2021/06/29 00:38:36;;;;;;;4.00;3.40;;;19.00;99.90;;;;;;5016343;28;19932;-80
2021/06/29 00:41:02;;;;;;;3.50;3.20;;;19.00;99.90;;;;;;5014008;28;20059;-79
2021/06/29 00:43:28;;;;;;;3.30;3.00;;;19.00;99.90;;;;;;5017493;28;19913;-81
2021/06/29 00:45:53;;;;;;;;;;;19.00;99.90;;;;;;5019470;28;20383;-80
2021/06/29 00:48:19;;;;;;;;;;;19.00;99.90;;;;;;5019491;28;20444;-81
2021/06/29 00:50:44;;;;;;;;;;;18.90;99.90;;;;;;5017944;28;19913;-81
2021/06/29 00:53:11;;;;;;;5.47;3.70;;;19.00;99.90;;;;;;5018345;28;20007;-82
2021/06/29 00:55:38;;;;;;;3.53;2.75;;;19.00;99.90;;;;;;5018531;28;19906;-80
2021/06/29 00:58:10;;;;;;;3.37;2.87;;;18.90;99.90;;;;;;5018166;28;19916;-79
2021/06/29 01:00:37;;;;;;;;;;;18.90;99.90;;;;;;5016402;28;19947;-81
2021/06/29 01:03:03;;;;;;;;;;;18.90;99.90;;;;;;5017256;28;19913;-82
2021/06/29 01:05:29;;;;;;;;;;;19.00;99.90;;;;;;5018404;28;19912;-80
2021/06/29 01:07:54;;;;;;;;;;;19.00;99.90;;;;;;5018315;28;19909;-80
2021/06/29 01:10:20;;;;;;;;;;;19.00;99.90;;;;;;5016635;28;24067;-81
2021/06/29 01:12:45;;;;;;;;;;;19.00;99.90;;;;;;5016077;28;24131;-81
2021/06/29 01:15:11;;;;;;;;;;;18.90;99.90;;;;;;5015838;28;24154;-81
2021/06/29 01:17:36;;;;;;;;;;;19.00;99.90;;;;;;5015843;28;19952;-80
2021/06/29 01:20:04;;;;;;;;;;;19.00;99.90;;;;;;5016190;28;24050;-80
2021/06/29 01:22:30;;;;;;;;;;;19.00;99.90;;;;;;5016709;28;19982;-80
2021/06/29 01:24:58;;;;;;;;;;;19.10;99.90;;;;;;5016240;28;20702;-81
2021/06/29 01:32:20;;;;;;;;;;;19.20;99.90;;;;;;5018422;28;20036;-82
2021/06/29 01:34:46;;;;;;;;;;;19.20;99.90;;;;;;5017957;28;20510;-82
2021/06/29 01:37:12;;;;;;;;;;;19.10;99.90;;;;;;5016442;28;20433;-80
2021/06/29 01:39:48;;;;;;;;;;;19.10;99.90;;;;;;5017821;28;25146;-80
2021/06/29 01:42:13;;;;;;;;;;;19.10;99.90;;;;;;5016794;28;19905;-80
2021/06/29 01:44:39;;;;;;;;;;;19.10;99.90;;;;;;5018423;28;20068;-80
2021/06/29 01:47:09;;;;;;;4.45;4.03;;;19.10;99.90;;;;;;5018702;28;24069;-80
2021/06/29 01:49:35;;;;;;;4.65;3.85;;;19.10;99.90;;;;;;5016611;28;20029;-80
2021/06/29 01:52:00;;;;;;;7.10;3.63;;;19.10;99.90;;;;;;5016415;28;19912;-81
2021/06/29 01:54:27;;;;;;;6.30;3.72;;;19.10;99.90;;;;;;5017454;28;20200;-81
2021/06/29 01:56:53;;;;;;;4.65;3.67;;;19.10;99.90;;;;;;5016389;28;20030;-80
2021/06/29 01:59:21;;;;;;;4.55;3.70;;;19.10;99.90;;;;;;5016265;28;19976;-81
2021/06/29 02:01:46;;;;;;;5.32;3.58;;;19.10;99.90;;;;;;5016328;28;20497;-83
2021/06/29 02:04:13;;;;;;;6.57;4.00;;;19.10;99.90;;;;;;5016419;28;20029;-82
2021/06/29 02:06:39;;;;;;;3.92;3.58;;;19.20;99.90;;;;;;5016951;28;19905;-80
2021/06/29 02:09:10;;;;;;;5.90;3.25;;;19.20;99.90;;;;;;5015888;28;19905;-82
2021/06/29 02:11:39;;;;;;;4.50;2.75;;;19.10;99.90;;;;;;5017799;28;20022;-79
2021/06/29 02:14:06;;;;;;;;;;;19.10;99.90;;;;;;5016244;28;20146;-81
2021/06/29 02:16:32;;;;;;;;;;;19.00;99.90;;;;;;5016268;28;20543;-80
2021/06/29 02:18:57;;;;;;;;;;;19.00;99.90;;;;;;5016395;28;20045;-80
2021/06/29 02:21:23;;;;;;;3.00;2.70;;;19.00;99.90;;;;;;5016410;28;20038;-80
2021/06/29 02:23:49;;;;;;;;;;;19.00;99.90;;;;;;5015352;28;19920;-81
2021/06/29 02:26:15;;;;;;;3.45;3.15;;;19.00;99.90;;;;;;5015718;28;20034;-80
2021/06/29 02:28:40;;;;;;;5.05;2.90;;;19.10;99.90;;;;;;5017880;28;19977;-80
2021/06/29 02:31:06;;;;;;;;;;;19.00;99.90;;;;;;5017917;28;19944;-79
2021/06/29 02:33:31;;;;;;;;;;;19.10;99.90;;;;;;5015256;28;20042;-81
2021/06/29 02:35:57;;;;;;;3.80;2.70;;;19.10;99.90;;;;;;5016343;28;20043;-80
2021/06/29 02:38:26;;;;;;;;;;;19.00;99.90;;;;;;5016723;28;19909;-81
2021/06/29 02:40:52;;;;;;;3.50;2.60;;;19.00;99.90;;;;;;5016332;28;20042;-82
2021/06/29 02:43:17;;;;;;;6.65;3.00;;;19.00;99.90;;;;;;5015199;28;20053;-80
2021/06/29 02:45:43;;;;;;;;;;;19.00;99.90;;;;;;5015649;28;19909;-81
2021/06/29 02:48:09;;;;;;;;;;;19.00;99.90;;;;;;5015758;28;20095;-82
2021/06/29 02:50:34;;;;;;;;;;;19.00;99.90;;;;;;5015707;28;20051;-81
2021/06/29 02:53:00;;;;;;;;;;;19.00;99.90;;;;;;5015528;28;20146;-80
2021/06/29 02:55:25;;;;;;;5.75;2.80;;;18.90;99.90;;;;;;5012878;28;20029;-79
2021/06/29 02:57:51;;;;;;;;;;;19.00;99.90;;;;;;5013323;28;19909;-79
2021/06/29 03:00:18;;;;;;;;;;;18.90;99.90;;;;;;5013115;28;20027;-80
2021/06/29 03:02:43;;;;;;;;;;;18.80;99.90;;;;;;5012044;28;24096;-82
2021/06/29 03:05:09;;;;;;;;;;;18.80;99.90;;;;;;5013151;28;24061;-80
2021/06/29 03:07:35;;;;;;;;;;;18.80;99.90;;;;;;5012865;28;20043;-81
2021/06/29 03:10:00;;;;;;;;;;;18.80;99.90;;;;;;5014055;28;20032;-79
2021/06/29 03:12:26;;;;;;;;;;;18.80;99.90;;;;;;5013850;28;20045;-80
2021/06/29 03:14:57;;;;;;;;;;;18.90;99.90;;;;;;5012243;28;20042;-81
2021/06/29 03:17:23;;;;;;;;;;;18.80;99.90;;;;;;5014176;28;20083;-80
2021/06/29 03:19:48;;;;;;;;;;;18.90;99.90;;;;;;5012496;28;20042;-80
2021/06/29 03:22:14;;;;;;;;;;;18.90;99.90;;;;;;5011906;28;20149;-80
2021/06/29 03:24:40;;;;;;;;;;;18.90;99.90;;;;;;5010625;28;19985;-80
2021/06/29 03:27:05;;;;;;;;;;;18.90;99.90;;;;;;5012439;28;24086;-80
2021/06/29 03:29:31;;;;;;;;;;;18.80;99.90;;;;;;5011205;28;20015;-80
2021/06/29 03:31:56;;;;;;;;;;;18.80;99.90;;;;;;5010979;28;19909;-81
2021/06/29 03:34:22;;;;;;;;;;;18.80;99.90;;;;;;5012647;28;24066;-81
2021/06/29 03:36:47;;;;;;;;;;;18.80;99.90;;;;;;5011783;28;20361;-80
2021/06/29 03:39:13;;;;;;;;;;;18.80;99.90;;;;;;5010853;28;19928;-79
2021/06/29 03:41:38;;;;;;;;;;;18.90;99.90;;;;;;5010144;28;19913;-79
2021/06/29 03:44:04;;;;;;;;;;;19.00;99.90;;;;;;5010694;28;19988;-80
2021/06/29 03:46:30;;;;;;;;;;;18.90;99.90;;;;;;5012350;28;19913;-81
2021/06/29 03:48:55;;;;;;;;;;;18.80;99.90;;;;;;5012299;28;19906;-79
2021/06/29 03:51:21;;;;;;;;;;;18.90;99.90;;;;;;5011074;28;24079;-79
2021/06/29 03:53:46;;;;;;;;;;;18.90;99.90;;;;;;5010387;28;24073;-81
2021/06/29 03:56:24;;;;;;;;;;;18.90;99.90;;;;;;5010837;28;20379;-81
2021/06/29 03:58:50;;;;;;;;;;;19.00;99.90;;;;;;5012706;28;19909;-81
2021/06/29 04:01:16;;;;;;;;;;;19.00;99.90;;;;;;5010809;28;19909;-80
2021/06/29 04:03:41;;;;;;;;;;;19.00;99.90;;;;;;5010157;28;20288;-80
2021/06/29 04:06:07;;;;;;;;;;;19.00;99.90;;;;;;5010801;28;24058;-80
2021/06/29 04:08:32;;;;;;;;;;;18.90;99.90;;;;;;5010600;28;20035;-81
2021/06/29 04:10:58;;;;;;;;;;;18.80;99.90;;;;;;5010304;28;19957;-80
2021/06/29 04:13:23;;;;;;;;;;;18.80;99.90;;;;;;5012499;28;19905;-81
2021/06/29 04:15:48;;;;;;;;;;;18.80;99.90;;;;;;5012073;28;24067;-81
2021/06/29 04:18:14;;;;;;;;;;;18.90;99.90;;;;;;5014603;28;19906;-79
2021/06/29 04:20:39;;;;;;;;;;;18.90;99.90;;;;;;5016313;28;19909;-80
2021/06/29 04:23:05;;;;;;;;;;;18.80;99.90;;;;;;5017184;28;25123;-80
2021/06/29 04:25:30;;;;;;;;;;;18.90;99.90;;;;;;5016579;28;19959;-80
2021/06/29 04:27:56;;;;;;;;;;;18.90;99.90;;;;;;5014549;28;20391;-80
2021/06/29 04:30:21;;;;;;;;;;;18.80;99.90;;;;;;5015446;28;19901;-80
2021/06/29 04:32:47;;;;;;;;;;;18.80;99.90;;;;;;5015633;28;19948;-79
2021/06/29 04:35:12;;;;;;;;;;;18.80;99.90;;;;;;5015974;28;19906;-79
2021/06/29 04:37:38;;;;;;;;;;;18.80;99.90;;;;;;5015975;28;20364;-80
2021/06/29 04:40:04;;;;;;;;;;;18.80;99.90;;;;;;5015261;28;19909;-80
2021/06/29 04:42:29;;;;;;;;;;;18.80;99.90;;;;;;5014409;28;19921;-80
2021/06/29 04:44:55;;;;;;;;;;;18.80;99.90;;;;;;5014140;28;19997;-80
2021/06/29 04:47:21;;;;;;;;;;;18.80;99.90;;;;;;5013220;28;19913;-79
2021/06/29 04:49:46;;;;;;;;;;;18.80;99.90;;;;;;5014263;28;19910;-79
2021/06/29 04:52:12;;;;;;;;;;;18.90;99.90;;;;;;5013787;28;19921;-79
2021/06/29 04:54:56;;;;;;;;;;;19.00;99.90;;;;;;5013933;28;19944;-81
2021/06/29 04:57:21;;;;;;;;;;;19.00;99.90;;;;;;5013074;28;20361;-81
2021/06/29 04:59:47;;;;;;;;;;;19.00;99.90;;;;;;5014266;28;20284;-79
2021/06/29 05:02:12;;;;;;;;;;;19.00;99.90;;;;;;5013334;28;19928;-79
2021/06/29 05:04:38;;;;;;;;;;;19.00;99.90;;;;;;5013242;28;20004;-80
2021/06/29 05:07:03;;;;;;;;;;;19.00;99.90;;;;;;5013083;28;19906;-80
2021/06/29 05:09:29;;;;;;;;;;;18.90;99.90;;;;;;5007255;28;19905;-80
2021/06/29 05:11:54;;;;;;;;;;;19.00;99.90;;;;;;5013807;28;19913;-80
2021/06/29 05:14:20;;;;;;;;;;;19.00;99.90;;;;;;5013272;28;19906;-80
2021/06/29 05:16:45;;;;;;;;;;;19.00;99.90;;;;;;5013558;28;20430;-80
2021/06/29 05:19:11;;;;;;;;;;;19.00;99.90;;;;;;5005405;28;20257;-81
2021/06/29 05:21:36;;;;;;;;;;;19.10;99.90;;;;;;5003478;28;20419;-80
2021/06/29 05:24:02;;;;;;;;;;;19.10;99.90;;;;;;5010287;28;20292;-81
2021/06/29 05:26:27;;;;;;;;;;;19.20;99.90;;;;;;5010238;28;19941;-81
2021/06/29 05:28:53;;;;;;;;;;;19.20;99.90;;;;;;5012346;28;19960;-80
2021/06/29 05:31:18;;;;;;;;;;;19.30;99.90;;;;;;5013187;28;19913;-79
2021/06/29 05:33:44;;;;;;;;;;;19.40;99.90;;;;;;5014312;28;20423;-79
2021/06/29 05:36:09;;;;;;;;;;;19.40;99.90;;;;;;5013281;28;19906;-80
2021/06/29 05:38:35;;;;;;;;;;;19.50;99.90;;;;;;5010044;28;24080;-81
2021/06/29 05:41:00;;;;;;;;;;;19.50;99.90;;;;;;5008482;28;19975;-80
2021/06/29 05:43:26;;;;;;;;;;;19.50;99.90;;;;;;5010117;28;19933;-80
2021/06/29 05:45:51;;;;;;;;;;;19.60;99.90;;;;;;5014125;28;19905;-80
2021/06/29 05:48:18;;;;;;;;;;;19.60;99.90;;;;;;5013567;28;20395;-80
2021/06/29 05:50:44;;;;;;;;;;;19.70;99.90;;;;;;5013629;28;20324;-80
2021/06/29 05:53:09;;;;;;;;;;;19.80;99.90;;;;;;5013417;28;19909;-80
2021/06/29 05:55:35;;;;;;;;;;;19.80;99.90;;;;;;5028949;28;19935;-79
2021/06/29 05:58:00;;;;;;;;;;;19.80;99.90;;;;;;5021071;28;19909;-80
2021/06/29 06:00:26;;;;;;;;;;;19.90;99.90;;;;;;5010794;28;19936;-80
2021/06/29 06:02:51;;;;;;;;;;;20.10;99.90;;;;;;5010545;28;24074;-81
2021/06/29 06:05:17;;;;;;;;;;;20.10;99.90;;;;;;5014230;28;19944;-80
2021/06/29 06:07:42;;;;;;;;;;;20.20;99.90;;;;;;5014231;28;20368;-79
2021/06/29 06:10:08;;;;;;;;;;;20.30;99.90;;;;;;5012598;28;20440;-81
2021/06/29 06:12:33;;;;;;;;;;;20.30;99.90;;;;;;5012441;28;19906;-80
2021/06/29 06:14:59;;;;;;;;;;;20.40;99.90;;;;;;5013780;28;20171;-81
2021/06/29 06:17:27;;;;;;;;;;;20.40;99.90;;;;;;5011293;28;19906;-83
2021/06/29 06:19:52;;;;;;;;;;;20.50;99.90;;;;;;5012603;28;24082;-84
2021/06/29 06:22:18;;;;;;;;;;;20.50;99.90;;;;;;5013197;28;24066;-81
2021/06/29 06:24:44;;;;;;;;;;;20.60;99.90;;;;;;5014253;28;19909;-82
2021/06/29 06:27:13;;;;;;;;;;;20.70;99.90;;;;;;5013099;28;19905;-82
2021/06/29 06:29:38;;;;;;;;;;;20.90;99.90;;;;;;5015048;28;19960;-82
2021/06/29 06:32:04;;;;;;;;;;;21.10;99.90;;;;;;5012613;28;20320;-82
2021/06/29 06:34:29;;;;;;;;;;;21.40;99.90;;;;;;5013046;28;24116;-82
2021/06/29 06:36:55;;;;;;;;;;;21.60;99.90;;;;;;5012453;28;19905;-81
2021/06/29 06:39:20;;;;;;;;;;;21.80;99.90;;;;;;5011520;28;20385;-81
2021/06/29 06:41:45;;;;;;;;;;;21.80;99.90;;;;;;5011776;28;19956;-81
2021/06/29 06:44:11;;;;;;;;;;;21.80;99.90;;;;;;5013783;28;20047;-80
2021/06/29 06:46:36;;;;;;;;;;;21.90;99.90;;;;;;5012212;28;20525;-82
2021/06/29 06:49:02;;;;;;;;;;;21.70;99.90;;;;;;5013288;28;19912;-81
2021/06/29 06:51:27;;;;;;;;;;;21.50;99.90;;;;;;5012499;28;19912;-81
2021/06/29 06:53:53;;;;;;;;;;;21.50;99.90;;;;;;5011583;28;19927;-83
2021/06/29 06:56:18;;;;;;;;;;;21.30;99.90;;;;;;5011884;28;20121;-81
2021/06/29 06:58:45;;;;;;;;;;;21.30;99.90;;;;;;5011753;28;19928;-81
2021/06/29 07:01:11;;;;;;;;;;;21.40;99.90;;;;;;5009668;28;19910;-81
2021/06/29 07:03:37;;;;;;;;;;;21.60;99.90;;;;;;5011744;28;19909;-81
2021/06/29 07:06:04;;;;;;;;;;;21.70;99.90;;;;;;5011086;28;24168;-81
2021/06/29 07:08:29;;;;;;;;;;;22.10;99.90;;;;;;5012861;28;19928;-83
2021/06/29 07:10:56;;;;;;;;;;;22.70;99.90;;;;;;5012313;28;20353;-80
2021/06/29 07:13:21;;;;;;;;;;;23.40;99.90;;;;;;5012629;28;19910;-82
2021/06/29 07:15:47;;;;;;;;;;;23.90;99.90;;;;;;5012913;28;19936;-81
2021/06/29 07:18:14;;;;;;;;;;;24.40;99.90;;;;;;5004634;28;20231;-81
2021/06/29 07:20:41;;;;;;;;;;;24.90;99.90;;;;;;5013148;28;19914;-80
2021/06/29 07:23:07;;;;;;;;;;;25.20;99.90;;;;;;5017427;28;19909;-81
2021/06/29 07:25:32;;;;;;;;;;;25.30;99.90;;;;;;5033071;28;19912;-80
2021/06/29 07:27:58;;;;;;;;;;;25.60;99.90;;;;;;5031779;28;19912;-80
2021/06/29 07:30:23;;;;;;;;;;;25.80;99.90;;;;;;5032087;28;19958;-81
2021/06/29 07:32:53;;;;;;;;;;;25.40;99.90;;;;;;5031542;28;20042;-81
2021/06/29 07:35:19;;;;;;;;;;;24.50;99.90;;;;;;5033409;28;24098;-81
2021/06/29 07:37:44;;;;;;;;;;;24.20;99.90;;;;;;5032833;28;24096;-80
2021/06/29 07:40:10;;;;;;;;;;;24.00;99.90;;;;;;5034870;28;20394;-81
2021/06/29 07:42:36;;;;;;;;;;;23.70;99.90;;;;;;5033915;28;19906;-81
2021/06/29 07:45:02;;;;;;;;;;;23.30;99.90;;;;;;5035354;28;19912;-80
2021/06/29 07:47:28;;;;;;;;;;;23.40;99.90;;;;;;5015506;28;19936;-81
2021/06/29 07:49:53;;;;;;;;;;;24.30;99.90;;;;;;5015405;28;19906;-81
2021/06/29 07:52:19;;;;;;;;;;;25.10;99.90;;;;;;5012619;28;20012;-81
2021/06/29 07:54:44;;;;;;;;;;;25.60;99.90;;;;;;5012663;28;24104;-81
2021/06/29 07:57:10;;;;;;;;;;;26.00;99.90;;;;;;5013477;28;19905;-82
2021/06/29 07:59:35;;;;;;;;;;;26.20;99.90;;;;;;5014074;28;19905;-81
2021/06/29 08:02:01;;;;;;;;;;;26.00;99.90;;;;;;5014479;28;19927;-81
2021/06/29 08:04:26;;;;;;;;;;;26.10;99.90;;;;;;5014568;28;20266;-81
2021/06/29 08:06:52;;;;;;;;;;;25.90;99.90;;;;;;5014606;28;19905;-81
2021/06/29 08:09:17;;;;;;;;;;;26.10;99.90;;;;;;5009935;28;24063;-81
2021/06/29 08:11:43;;;;;;;;;;;26.50;99.90;;;;;;4995620;28;19914;-80
2021/06/29 08:14:08;;;;;;;;;;;26.40;99.90;;;;;;4996511;28;19906;-81
2021/06/29 08:16:34;;;;;;;;;;;26.50;99.90;;;;;;4992374;28;20369;-81
2021/06/29 08:18:59;;;;;;;;;;;26.60;99.90;;;;;;4992741;28;19906;-81
2021/06/29 08:21:25;;;;;;;;;;;26.80;99.90;;;;;;4994632;28;19917;-80
2021/06/29 08:23:50;;;;;;;;;;;26.90;99.90;;;;;;4993270;28;20357;-80
2021/06/29 08:26:15;;;;;;;;;;;26.80;99.90;;;;;;4992781;28;19909;-80
2021/06/29 08:28:41;;;;;;;;;;;26.90;99.90;;;;;;4992932;28;19912;-81
2021/06/29 08:31:06;;;;;;;;;;;27.20;99.90;;;;;;4992889;28;19956;-81
2021/06/29 08:33:32;;;;;;;;;;;27.40;99.90;;;;;;4991866;28;19929;-82
2021/06/29 08:35:58;;;;;;;;;;;27.70;99.90;;;;;;4996114;28;19949;-82
2021/06/29 08:38:23;;;;;;;;;;;27.90;99.90;;;;;;5011011;28;19960;-81
2021/06/29 08:40:49;;;;;;;;;;;28.10;99.90;;;;;;5011662;28;20090;-82
2021/06/29 08:43:15;;;;;;;;;;;27.90;99.90;;;;;;5011595;28;19955;-81
2021/06/29 08:45:41;;;;;;;;;;;27.80;99.90;;;;;;5011639;28;20331;-82
2021/06/29 08:48:07;;;;;;;;;;;27.40;99.90;;;;;;5011565;28;20373;-81
2021/06/29 08:50:33;;;;;;;;;;;27.80;99.90;;;;;;5012524;28;19951;-80
2021/06/29 08:52:59;;;;;;;;;;;28.40;99.90;;;;;;5011388;28;19906;-81
2021/06/29 08:55:26;;;;;;;;;;;28.40;99.90;;;;;;5011208;28;19916;-81
2021/06/29 08:57:51;;;;;;;;;;;28.20;99.90;;;;;;5013114;28;20424;-81
2021/06/29 09:00:17;;;;;;;;;;;28.10;99.90;;;;;;5013480;28;19960;-82
2021/06/29 09:02:42;;;;;;;;;;;28.20;99.90;;;;;;5012985;28;20300;-82
2021/06/29 09:05:28;;;;;;;;;;;28.50;99.90;;;;;;5009901;28;19917;-80
2021/06/29 09:08:00;;;;;;;;;;;28.70;99.90;;;;;;5016203;28;20364;-81
2021/06/29 09:10:26;;;;;;;;;;;28.50;99.90;;;;;;5025036;28;19905;-81
2021/06/29 09:12:54;;;;;;;;;;;28.50;99.90;;;;;;5035595;28;19905;-81
2021/06/29 09:15:20;;;;;;;;;;;28.70;99.90;;;;;;5034421;28;20109;-81
2021/06/29 09:17:46;;;;;;;;;;;28.50;99.90;;;;;;5036005;28;19944;-80
2021/06/29 09:20:11;;;;;;;;;;;28.40;99.90;;;;;;5033765;28;20361;-80
2021/06/29 09:22:37;;;;;;;;;;;28.10;99.90;;;;;;5034510;28;24062;-81
2021/06/29 09:25:03;;;;;;;;;;;27.90;99.90;;;;;;5034894;28;20353;-81
2021/06/29 09:27:41;;;;;;;;;;;28.10;99.90;;;;;;5035665;28;20008;-81
2021/06/29 09:30:30;;;;;;;;;;;28.30;99.90;;;;;;5035155;28;24072;-81
2021/06/29 09:33:00;;;;;;;;;;;28.40;99.90;;;;;;4998070;28;19909;-81
2021/06/29 09:35:26;;;;;;;;;;;28.60;99.90;;;;;;5035883;28;20438;-80
2021/06/29 09:37:51;;;;;;;;;;;28.90;99.90;;;;;;5035497;28;20292;-79
2021/06/29 09:40:18;;;;;;;;;;;29.10;99.90;;;;;;5037046;28;19920;-79
2021/06/29 09:42:44;;;;;;;;;;;29.10;99.90;;;;;;5037042;28;19909;-81
2021/06/29 09:45:30;;;;;;;;;;;28.90;99.90;;;;;;5035807;28;19912;-80
2021/06/29 09:47:55;;;;;;;;;;;28.80;99.90;;;;;;5012080;28;19910;-80
2021/06/29 09:50:39;;;;;;;;;;;28.90;99.90;;;;;;5017562;28;19928;-81
2021/06/29 09:53:26;;;;;;;;;;;28.00;99.90;;;;;;5015444;28;19909;-80
2021/06/29 09:55:53;;;;;;;;;;;27.20;99.90;;;;;;5016007;28;19916;-80
2021/06/29 09:58:19;;;;;;;;;;;26.70;99.90;;;;;;5017185;28;20487;-79
2021/06/29 10:00:48;;;;;;;;;;;26.60;99.90;;;;;;5013203;28;19913;-79
2021/06/29 10:03:41;;;;;;;;;;;26.60;99.90;;;;;;5011214;28;19905;-80
2021/06/29 10:06:17;;;;;;;;;;;26.30;99.90;;;;;;5011082;28;19916;-79
2021/06/29 10:08:44;;;;;;;;;;;25.90;99.90;;;;;;5014606;28;20396;-79
2021/06/29 10:11:13;;;;;;;;;;;26.30;99.90;;;;;;5015236;28;24144;-80
2021/06/29 10:13:49;;;;;;;;;;;27.30;99.90;;;;;;5005609;28;19905;-80
2021/06/29 10:16:17;;;;;;;;;;;28.00;99.90;;;;;;5017413;28;20365;-79
2021/06/29 10:19:23;;;;;;;;;;;28.80;99.90;;;;;;5010913;28;19906;-80
2021/06/29 10:21:34;;;;;;;;;;;28.90;99.90;;;;;;5008117;28;20422;-81
2021/06/29 10:24:02;;;;;;;;;;;28.80;99.90;;;;;;5004202;28;19909;-80
2021/06/29 10:26:29;;;;;;;;;;;28.60;99.90;;;;;;5008134;28;19919;-80
2021/06/29 10:28:54;;;;;;;;;;;28.90;99.90;;;;;;5005676;28;19912;-79
2021/06/29 10:31:24;;;;;;;;;;;28.70;99.90;;;;;;5005371;28;20005;-79
2021/06/29 10:33:50;;;;;;;;;;;28.70;99.90;;;;;;5004910;28;19955;-79
2021/06/29 10:36:16;;;;;;;;;;;28.40;99.90;;;;;;5006966;28;20305;-79
2021/06/29 10:38:42;;;;;;;;;;;28.80;99.90;;;;;;5003985;28;19928;-79
2021/06/29 10:41:08;;;;;;;;;;;28.60;99.90;;;;;;5005811;28;19918;-80
2021/06/29 10:43:35;;;;;;;;;;;28.90;99.90;;;;;;5007783;28;19967;-80
2021/06/29 10:46:01;;;;;;;;;;;29.30;99.90;;;;;;5008219;28;19944;-80
2021/06/29 10:48:27;;;;;;;;;;;29.70;99.90;;;;;;5003511;28;20296;-81
2021/06/29 10:50:54;;;;;;;;;;;29.60;99.90;;;;;;5005861;28;24105;-81
2021/06/29 10:53:36;;;;;;;;;;;29.30;99.90;;;;;;5008399;28;19909;-80
2021/06/29 10:56:07;;;;;;;;;;;29.10;99.90;;;;;;5003123;28;19905;-81
2021/06/29 10:58:48;;;;;;;;;;;29.30;99.90;;;;;;5011154;28;19955;-81
2021/06/29 11:01:20;;;;;;;;;;;29.10;99.90;;;;;;5012557;28;20308;-81
2021/06/29 11:03:45;;;;;;;;;;;29.60;99.90;;;;;;5011820;28;24064;-80
2021/06/29 11:06:11;;;;;;;;;;;29.40;99.90;;;;;;5012851;28;20350;-80
2021/06/29 11:08:46;;;;;;;;;;;29.40;99.90;;;;;;5012365;28;19909;-81
2021/06/29 11:11:12;;;;;;;;;;;29.70;99.90;;;;;;5013790;28;19913;-81
2021/06/29 11:13:45;;;;;;;;;;;30.00;99.90;;;;;;5011790;28;20180;-80
2021/06/29 11:16:10;;;;;;;;;;;30.00;99.90;;;;;;5012618;28;19932;-81
2021/06/29 11:18:36;;;;;;;;;;;30.00;99.90;;;;;;5011277;28;19913;-80
2021/06/29 11:21:04;;;;;;;;;;;30.20;99.90;;;;;;5009372;28;24091;-80
2021/06/29 11:23:32;;;;;;;;;;;30.10;99.90;;;;;;5013345;28;19909;-81
2021/06/29 11:26:13;;;;;;;;;;;30.20;99.90;;;;;;5011440;28;19909;-81
2021/06/29 11:28:40;;;;;;;;;;;30.20;99.90;;;;;;5002120;28;19955;-81
2021/06/29 11:31:21;;;;;;;;;;;30.10;99.90;;;;;;5009836;28;20357;-81
2021/06/29 11:33:58;;;;;;;;;;;29.70;99.90;;;;;;5003242;28;19916;-83
2021/06/29 11:36:23;;;;;;;;;;;29.00;99.90;;;;;;5004688;28;19906;-81
2021/06/29 11:38:50;;;;;;;;;;;28.70;99.90;;;;;;5006430;28;19976;-81
2021/06/29 11:41:24;;;;;;;;;;;28.90;99.90;;;;;;5005040;28;19916;-82
2021/06/29 11:43:50;;;;;;;;;;;29.30;99.90;;;;;;5000986;28;19980;-80
2021/06/29 11:46:35;;;;;;;;;;;29.50;99.90;;;;;;5004127;28;19905;-80
2021/06/29 11:49:07;;;;;;;;;;;29.30;99.90;;;;;;5003540;28;19905;-81
2021/06/29 11:51:52;;;;;;;;;;;29.60;99.90;;;;;;5012343;28;19909;-82
2021/06/29 11:54:38;;;;;;;;;;;29.50;99.90;;;;;;5009547;28;19969;-81
2021/06/29 11:57:22;;;;;;;;;;;29.40;99.90;;;;;;5009370;28;19910;-78
2021/06/29 11:59:49;;;;;;;;;;;29.80;99.90;;;;;;5019787;28;19912;-81
2021/06/29 12:02:33;;;;;;;;;;;29.70;99.90;;;;;;5025205;28;19940;-81
2021/06/29 12:05:04;;;;;;;;;;;29.30;99.90;;;;;;5026011;28;19905;-81
2021/06/29 12:07:34;;;;;;;;;;;29.10;99.90;;;;;;5023999;28;20343;-81
2021/06/29 12:10:00;;;;;;;;;;;28.90;99.90;;;;;;5022133;28;19917;-81
2021/06/29 12:12:26;;;;;;;;;;;28.90;99.90;;;;;;5014956;28;19905;-80
2021/06/29 12:15:21;;;;;;;;;;;28.90;99.90;;;;;;5023144;28;19909;-80
2021/06/29 12:17:46;;;;;;;;;;;29.20;99.90;;;;;;5009318;28;19990;-81
2021/06/29 12:20:13;;;;;;;;;;;29.10;99.90;;;;;;5014955;28;19917;-81
2021/06/29 12:22:39;;;;;;;;;;;28.30;99.90;;;;;;5016560;28;19913;-81
2021/06/29 12:25:06;;;;;;;;;;;27.50;99.90;;;;;;5014948;28;19909;-80
2021/06/29 12:27:32;;;;;;;;;;;27.10;99.90;;;;;;5020847;28;19906;-81
2021/06/29 12:29:58;;;;;;;;;;;26.80;99.90;;;;;;5025439;28;19967;-80
2021/06/29 12:32:24;;;;;;;;;;;26.60;99.90;;;;;;5024218;28;19906;-80
2021/06/29 12:34:51;;;;;;;;;;;26.30;99.90;;;;;;5025173;28;19918;-80
2021/06/29 12:37:17;;;;;;;;;;;26.00;99.90;;;;;;5027046;28;19964;-80
2021/06/29 12:39:43;;;;;;;;;;;25.80;99.90;;;;;;5028862;28;19910;-79
2021/06/29 12:42:10;;;;;;;;;;;25.60;99.90;;;;;;5028947;28;19905;-79
2021/06/29 12:44:35;;;;;;;;;;;25.40;99.90;;;;;;5028605;28;20364;-79
2021/06/29 12:47:02;;;;;;;;;;;25.00;99.90;;;;;;5025016;28;19910;-80
2021/06/29 12:49:28;;;;;;;;;;;24.70;99.90;;;;;;5027904;28;20331;-81
2021/06/29 12:52:08;;;;;;;;;;;24.60;99.90;;;;;;5028680;28;19956;-80
2021/06/29 12:54:34;;;;;;;;;;;24.00;99.90;;;;;;5026452;28;19905;-80
2021/06/29 12:57:03;;;;;;;0.93;0.63;;;23.30;99.90;;;;;;5027771;28;19905;-79
2021/06/29 12:59:32;;;;;;;0.52;0.40;;;22.70;99.90;;;;;;5025994;28;20116;-80
2021/06/29 13:02:03;;;;;;;;;;;22.30;99.90;;;;;;5026475;28;20034;-81
2021/06/29 13:04:42;;;;;;;;;;;21.90;99.90;;;;;;5021937;28;19916;-79
2021/06/29 13:07:08;;;;;;;;;;;21.20;99.90;;;;;;5014566;28;19991;-79
2021/06/29 13:09:39;;;;;;;;;;;20.30;99.90;;;;;;5016436;28;20000;-79
2021/06/29 13:12:09;;;;;;;;;;;19.80;99.90;;;;;;5013666;28;19905;-79
2021/06/29 13:14:36;;;;;;;;;;;19.60;99.90;;;;;;5013791;28;19906;-79
2021/06/29 13:17:06;;;;;;;;;;;19.40;99.90;;;;;;5013626;28;19921;-79
2021/06/29 13:19:33;;;;;;;;;;;19.30;99.90;;;;;;5013600;28;20319;-80
2021/06/29 13:22:04;;;;;;;;;;;19.30;99.90;;;;;;5013630;28;20003;-80
2021/06/29 13:24:38;;;;;;;;;;;19.10;99.90;;;;;;5013596;28;19915;-80
2021/06/29 13:27:05;;;;;;;;;;;18.90;99.90;;;;;;5013935;28;20360;-79
2021/06/29 13:29:35;;;;;;;;;;;18.90;99.90;;;;;;5013725;28;19906;-80
2021/06/29 13:32:01;;;;;;;;;;;18.80;99.90;;;;;;5015017;28;19905;-80
2021/06/29 13:34:33;;;;;;;;;;;18.90;99.90;;;;;;5013619;28;19912;-80
2021/06/29 13:37:19;;;;;;;;;;;18.90;99.90;;;;;;5013848;28;20024;-80
2021/06/29 13:39:45;;;;;;;;;;;18.80;99.90;;;;;;5013445;28;20283;-80
2021/06/29 13:42:21;;;;;;;;;;;18.70;99.90;;;;;;5013553;28;19913;-80
2021/06/29 13:44:57;;;;;;;;;;;18.60;99.90;;;;;;5014574;28;19996;-79
2021/06/29 13:47:22;;;;;;;;;;;18.50;99.90;;;;;;5014691;28;19909;-80
2021/06/29 13:50:03;;;;;;;;;;;18.60;99.90;;;;;;5012948;28;20293;-79
2021/06/29 13:52:29;;;;;;;;;;;18.60;99.90;;;;;;5013155;28;19944;-80
2021/06/29 13:55:05;;;;;;;;;;;18.60;99.90;;;;;;5013593;28;19944;-80
2021/06/29 13:57:30;;;;;;;;;;;18.60;99.90;;;;;;5013460;28;20000;-80
2021/06/29 13:59:56;;;;;;;;;;;18.60;99.90;;;;;;5014411;28;19949;-80
2021/06/29 14:02:31;;;;;;;;;;;18.70;99.90;;;;;;5013784;28;20262;-79
2021/06/29 14:04:57;;;;;;;;;;;18.70;99.90;;;;;;5012943;28;20544;-79
2021/06/29 14:07:23;;;;;;;;;;;18.70;99.90;;;;;;5012985;28;19944;-80
2021/06/29 14:09:48;;;;;;;;;;;18.70;99.90;;;;;;5012716;28;19945;-80
2021/06/29 14:12:24;;;;;;;;;;;18.70;99.90;;;;;;5012742;28;19912;-79
2021/06/29 14:14:50;;;;;;;;;;;18.70;99.90;;;;;;5012786;28;19955;-80
2021/06/29 14:17:16;;;;;;;;;;;18.70;99.90;;;;;;5012126;28;20009;-80